sensor_id;sensor_type;location;lat;lon;timestamp;P1;durP1;ratioP1;P2;durP2;ratioP2
18651;SDS011;9455;54.302;10.124;2023-02-19T00:01:44;2.50;;;2.30;;
18651;SDS011;9455;54.302;10.124;2023-02-19T00:04:11;21.17;;;3.63;;
18651;SDS011;9455;54.302;10.124;2023-02-19T00:06:40;8.07;;;3.00;;
18651;SDS011;9455;54.302;10.124;2023-02-19T00:09:08;3.80;;;2.60;;
18651;SDS011;9455;54.302;10.124;2023-02-19T00:11:37;6.00;;;2.13;;
18651;SDS011;9455;54.302;10.124;2023-02-19T00:14:04;13.57;;;2.60;;
18651;SDS011;9455;54.302;10.124;2023-02-19T00:16:32;12.70;;;2.90;;
18651;SDS011;9455;54.302;10.124;2023-02-19T00:19:00;7.73;;;3.17;;
18651;SDS011;9455;54.302;10.124;2023-02-19T00:21:28;9.77;;;3.40;;
18651;SDS011;9455;54.302;10.124;2023-02-19T00:23:56;16.47;;;3.47;;
18651;SDS011;9455;54.302;10.124;2023-02-19T00:26:24;14.47;;;2.77;;
18651;SDS011;9455;54.302;10.124;2023-02-19T00:28:52;13.77;;;3.13;;
18651;SDS011;9455;54.302;10.124;2023-02-19T00:31:21;16.60;;;3.07;;
18651;SDS011;9455;54.302;10.124;2023-02-19T00:33:50;10.80;;;3.10;;
18651;SDS011;9455;54.302;10.124;2023-02-19T00:36:18;8.93;;;3.20;;
18651;SDS011;9455;54.302;10.124;2023-02-19T00:38:46;8.83;;;3.03;;
18651;SDS011;9455;54.302;10.124;2023-02-19T00:41:14;4.90;;;3.80;;
18651;SDS011;9455;54.302;10.124;2023-02-19T00:43:45;14.10;;;4.60;;
18651;SDS011;9455;54.302;10.124;2023-02-19T00:46:14;8.67;;;3.33;;
18651;SDS011;9455;54.302;10.124;2023-02-19T00:48:42;9.33;;;3.57;;
18651;SDS011;9455;54.302;10.124;2023-02-19T00:51:08;7.13;;;3.00;;
18651;SDS011;9455;54.302;10.124;2023-02-19T00:53:35;10.47;;;3.20;;
18651;SDS011;9455;54.302;10.124;2023-02-19T00:56:02;12.83;;;3.13;;
18651;SDS011;9455;54.302;10.124;2023-02-19T00:58:29;11.47;;;3.50;;
18651;SDS011;9455;54.302;10.124;2023-02-19T01:00:56;4.27;;;3.00;;
18651;SDS011;9455;54.302;10.124;2023-02-19T01:03:24;12.23;;;3.10;;
18651;SDS011;9455;54.302;10.124;2023-02-19T01:05:51;10.80;;;3.30;;
18651;SDS011;9455;54.302;10.124;2023-02-19T01:08:18;15.40;;;3.30;;
18651;SDS011;9455;54.302;10.124;2023-02-19T01:10:45;11.80;;;3.37;;
18651;SDS011;9455;54.302;10.124;2023-02-19T01:13:12;10.63;;;3.63;;
18651;SDS011;9455;54.302;10.124;2023-02-19T01:15:39;7.10;;;3.70;;
18651;SDS011;9455;54.302;10.124;2023-02-19T01:18:06;9.27;;;3.13;;
18651;SDS011;9455;54.302;10.124;2023-02-19T01:20:34;10.13;;;3.30;;
18651;SDS011;9455;54.302;10.124;2023-02-19T01:23:03;11.67;;;3.50;;
18651;SDS011;9455;54.302;10.124;2023-02-19T01:25:30;14.77;;;3.50;;
18651;SDS011;9455;54.302;10.124;2023-02-19T01:27:56;8.50;;;2.80;;
18651;SDS011;9455;54.302;10.124;2023-02-19T01:30:23;8.53;;;4.33;;
18651;SDS011;9455;54.302;10.124;2023-02-19T01:32:49;13.60;;;2.77;;
18651;SDS011;9455;54.302;10.124;2023-02-19T01:35:16;9.87;;;2.60;;
18651;SDS011;9455;54.302;10.124;2023-02-19T01:37:44;9.03;;;3.10;;
18651;SDS011;9455;54.302;10.124;2023-02-19T01:40:11;11.80;;;3.87;;
18651;SDS011;9455;54.302;10.124;2023-02-19T01:42:39;7.47;;;3.23;;
18651;SDS011;9455;54.302;10.124;2023-02-19T01:47:48;8.13;;;3.00;;
18651;SDS011;9455;54.302;10.124;2023-02-19T01:50:22;13.50;;;2.97;;
18651;SDS011;9455;54.302;10.124;2023-02-19T01:52:52;9.57;;;3.23;;
18651;SDS011;9455;54.302;10.124;2023-02-19T01:55:19;10.43;;;2.53;;
18651;SDS011;9455;54.302;10.124;2023-02-19T01:57:46;14.57;;;2.53;;
18651;SDS011;9455;54.302;10.124;2023-02-19T02:00:15;10.30;;;2.60;;
18651;SDS011;9455;54.302;10.124;2023-02-19T02:02:44;7.80;;;2.50;;
18651;SDS011;9455;54.302;10.124;2023-02-19T02:05:16;5.93;;;2.23;;
18651;SDS011;9455;54.302;10.124;2023-02-19T02:07:49;11.73;;;2.60;;
18651;SDS011;9455;54.302;10.124;2023-02-19T02:10:34;7.40;;;2.43;;
18651;SDS011;9455;54.302;10.124;2023-02-19T02:13:01;8.40;;;2.07;;
18651;SDS011;9455;54.302;10.124;2023-02-19T02:15:28;5.33;;;2.40;;
18651;SDS011;9455;54.302;10.124;2023-02-19T02:18:04;4.30;;;2.50;;
18651;SDS011;9455;54.302;10.124;2023-02-19T02:20:47;11.23;;;2.23;;
18651;SDS011;9455;54.302;10.124;2023-02-19T02:23:28;11.60;;;1.83;;
18651;SDS011;9455;54.302;10.124;2023-02-19T02:26:11;7.93;;;1.83;;
18651;SDS011;9455;54.302;10.124;2023-02-19T02:31:45;5.37;;;1.87;;
18651;SDS011;9455;54.302;10.124;2023-02-19T02:34:17;5.53;;;1.70;;
18651;SDS011;9455;54.302;10.124;2023-02-19T02:36:46;12.90;;;2.23;;
18651;SDS011;9455;54.302;10.124;2023-02-19T02:39:18;5.07;;;2.60;;
18651;SDS011;9455;54.302;10.124;2023-02-19T02:41:48;6.13;;;1.97;;
18651;SDS011;9455;54.302;10.124;2023-02-19T02:44:38;14.50;;;3.30;;
18651;SDS011;9455;54.302;10.124;2023-02-19T02:47:06;9.30;;;1.73;;
18651;SDS011;9455;54.302;10.124;2023-02-19T02:49:55;8.87;;;2.57;;
18651;SDS011;9455;54.302;10.124;2023-02-19T02:52:30;7.97;;;2.00;;
18651;SDS011;9455;54.302;10.124;2023-02-19T02:55:16;3.47;;;2.47;;
18651;SDS011;9455;54.302;10.124;2023-02-19T02:57:44;12.50;;;2.87;;
18651;SDS011;9455;54.302;10.124;2023-02-19T03:00:11;4.33;;;1.60;;
18651;SDS011;9455;54.302;10.124;2023-02-19T03:02:40;7.63;;;2.70;;
18651;SDS011;9455;54.302;10.124;2023-02-19T03:05:08;7.00;;;2.23;;
18651;SDS011;9455;54.302;10.124;2023-02-19T03:07:57;7.87;;;2.43;;
18651;SDS011;9455;54.302;10.124;2023-02-19T03:10:31;5.83;;;1.83;;
18651;SDS011;9455;54.302;10.124;2023-02-19T03:13:00;14.53;;;2.40;;
18651;SDS011;9455;54.302;10.124;2023-02-19T03:15:50;12.70;;;2.37;;
18651;SDS011;9455;54.302;10.124;2023-02-19T03:18:40;6.83;;;2.17;;
18651;SDS011;9455;54.302;10.124;2023-02-19T03:21:29;2.83;;;1.90;;
18651;SDS011;9455;54.302;10.124;2023-02-19T03:24:00;7.20;;;1.80;;
18651;SDS011;9455;54.302;10.124;2023-02-19T03:26:46;3.53;;;2.20;;
18651;SDS011;9455;54.302;10.124;2023-02-19T03:29:17;4.77;;;1.83;;
18651;SDS011;9455;54.302;10.124;2023-02-19T03:31:50;7.90;;;1.73;;
18651;SDS011;9455;54.302;10.124;2023-02-19T03:34:22;11.90;;;2.43;;
18651;SDS011;9455;54.302;10.124;2023-02-19T03:36:52;3.47;;;2.03;;
18651;SDS011;9455;54.302;10.124;2023-02-19T03:39:23;11.83;;;2.03;;
18651;SDS011;9455;54.302;10.124;2023-02-19T03:41:52;4.67;;;2.00;;
18651;SDS011;9455;54.302;10.124;2023-02-19T03:44:24;4.23;;;1.73;;
18651;SDS011;9455;54.302;10.124;2023-02-19T03:46:59;3.47;;;1.90;;
18651;SDS011;9455;54.302;10.124;2023-02-19T03:49:35;7.33;;;2.07;;
18651;SDS011;9455;54.302;10.124;2023-02-19T03:52:09;4.83;;;1.70;;
18651;SDS011;9455;54.302;10.124;2023-02-19T03:54:43;8.67;;;1.70;;
18651;SDS011;9455;54.302;10.124;2023-02-19T03:57:18;5.53;;;1.70;;
18651;SDS011;9455;54.302;10.124;2023-02-19T03:59:48;7.40;;;2.60;;
18651;SDS011;9455;54.302;10.124;2023-02-19T04:02:23;4.63;;;1.40;;
18651;SDS011;9455;54.302;10.124;2023-02-19T04:04:57;5.40;;;1.60;;
18651;SDS011;9455;54.302;10.124;2023-02-19T04:07:31;4.57;;;1.33;;
18651;SDS011;9455;54.302;10.124;2023-02-19T04:10:00;7.13;;;1.60;;
18651;SDS011;9455;54.302;10.124;2023-02-19T04:12:27;10.27;;;1.83;;
18651;SDS011;9455;54.302;10.124;2023-02-19T04:14:56;5.10;;;1.53;;
18651;SDS011;9455;54.302;10.124;2023-02-19T04:17:28;7.60;;;2.37;;
18651;SDS011;9455;54.302;10.124;2023-02-19T04:20:00;4.77;;;2.10;;
18651;SDS011;9455;54.302;10.124;2023-02-19T04:22:30;8.57;;;1.77;;
18651;SDS011;9455;54.302;10.124;2023-02-19T04:24:57;6.63;;;1.47;;
18651;SDS011;9455;54.302;10.124;2023-02-19T04:27:24;4.63;;;1.23;;
18651;SDS011;9455;54.302;10.124;2023-02-19T04:29:51;6.00;;;2.13;;
18651;SDS011;9455;54.302;10.124;2023-02-19T04:32:18;11.90;;;2.03;;
18651;SDS011;9455;54.302;10.124;2023-02-19T04:34:45;15.53;;;2.27;;
18651;SDS011;9455;54.302;10.124;2023-02-19T04:37:13;9.23;;;1.40;;
18651;SDS011;9455;54.302;10.124;2023-02-19T04:39:39;5.27;;;1.67;;
18651;SDS011;9455;54.302;10.124;2023-02-19T04:42:06;11.27;;;2.13;;
18651;SDS011;9455;54.302;10.124;2023-02-19T04:44:33;4.17;;;1.47;;
18651;SDS011;9455;54.302;10.124;2023-02-19T04:46:59;1.93;;;1.63;;
18651;SDS011;9455;54.302;10.124;2023-02-19T04:49:26;7.23;;;1.70;;
18651;SDS011;9455;54.302;10.124;2023-02-19T04:51:52;14.53;;;2.00;;
18651;SDS011;9455;54.302;10.124;2023-02-19T04:54:20;8.00;;;1.60;;
18651;SDS011;9455;54.302;10.124;2023-02-19T04:56:47;7.03;;;1.80;;
18651;SDS011;9455;54.302;10.124;2023-02-19T04:59:14;5.23;;;1.83;;
18651;SDS011;9455;54.302;10.124;2023-02-19T05:01:41;6.33;;;1.40;;
18651;SDS011;9455;54.302;10.124;2023-02-19T05:04:08;10.23;;;1.70;;
18651;SDS011;9455;54.302;10.124;2023-02-19T05:06:34;5.27;;;1.67;;
18651;SDS011;9455;54.302;10.124;2023-02-19T05:09:01;3.90;;;2.03;;
18651;SDS011;9455;54.302;10.124;2023-02-19T05:11:30;7.23;;;1.30;;
18651;SDS011;9455;54.302;10.124;2023-02-19T05:13:56;6.77;;;1.87;;
18651;SDS011;9455;54.302;10.124;2023-02-19T05:16:23;7.80;;;1.97;;
18651;SDS011;9455;54.302;10.124;2023-02-19T05:18:50;7.63;;;2.20;;
18651;SDS011;9455;54.302;10.124;2023-02-19T05:21:16;7.77;;;1.77;;
18651;SDS011;9455;54.302;10.124;2023-02-19T05:23:43;12.53;;;1.43;;
18651;SDS011;9455;54.302;10.124;2023-02-19T05:26:11;11.93;;;1.63;;
18651;SDS011;9455;54.302;10.124;2023-02-19T05:28:42;13.33;;;1.63;;
18651;SDS011;9455;54.302;10.124;2023-02-19T05:31:09;6.80;;;1.47;;
18651;SDS011;9455;54.302;10.124;2023-02-19T05:33:36;13.47;;;2.47;;
18651;SDS011;9455;54.302;10.124;2023-02-19T05:36:04;6.83;;;1.80;;
18651;SDS011;9455;54.302;10.124;2023-02-19T05:38:33;2.37;;;1.40;;
18651;SDS011;9455;54.302;10.124;2023-02-19T05:41:06;9.00;;;1.80;;
18651;SDS011;9455;54.302;10.124;2023-02-19T05:43:34;7.93;;;1.50;;
18651;SDS011;9455;54.302;10.124;2023-02-19T05:46:02;7.63;;;1.53;;
18651;SDS011;9455;54.302;10.124;2023-02-19T05:48:29;10.20;;;1.47;;
18651;SDS011;9455;54.302;10.124;2023-02-19T05:50:59;21.57;;;1.80;;
18651;SDS011;9455;54.302;10.124;2023-02-19T05:53:27;8.17;;;1.27;;
18651;SDS011;9455;54.302;10.124;2023-02-19T05:55:54;0.93;;;0.93;;
18651;SDS011;9455;54.302;10.124;2023-02-19T05:58:20;16.50;;;1.67;;
18651;SDS011;9455;54.302;10.124;2023-02-19T06:00:47;5.40;;;1.20;;
18651;SDS011;9455;54.302;10.124;2023-02-19T06:03:15;2.73;;;1.30;;
18651;SDS011;9455;54.302;10.124;2023-02-19T06:05:42;5.30;;;1.30;;
18651;SDS011;9455;54.302;10.124;2023-02-19T06:08:08;5.37;;;1.60;;
18651;SDS011;9455;54.302;10.124;2023-02-19T06:10:37;5.57;;;1.57;;
18651;SDS011;9455;54.302;10.124;2023-02-19T06:13:05;10.97;;;1.63;;
18651;SDS011;9455;54.302;10.124;2023-02-19T06:15:32;5.93;;;1.87;;
18651;SDS011;9455;54.302;10.124;2023-02-19T06:17:58;8.30;;;1.57;;
18651;SDS011;9455;54.302;10.124;2023-02-19T06:20:27;10.77;;;1.87;;
18651;SDS011;9455;54.302;10.124;2023-02-19T06:22:53;11.37;;;1.60;;
18651;SDS011;9455;54.302;10.124;2023-02-19T06:25:20;5.67;;;1.50;;
18651;SDS011;9455;54.302;10.124;2023-02-19T06:27:47;7.70;;;2.10;;
18651;SDS011;9455;54.302;10.124;2023-02-19T06:30:13;4.70;;;1.70;;
18651;SDS011;9455;54.302;10.124;2023-02-19T06:32:40;9.93;;;1.60;;
18651;SDS011;9455;54.302;10.124;2023-02-19T06:35:06;6.40;;;1.83;;
18651;SDS011;9455;54.302;10.124;2023-02-19T06:37:34;5.37;;;1.60;;
18651;SDS011;9455;54.302;10.124;2023-02-19T06:40:01;3.70;;;1.40;;
18651;SDS011;9455;54.302;10.124;2023-02-19T06:42:29;3.60;;;1.40;;
18651;SDS011;9455;54.302;10.124;2023-02-19T06:44:57;1.83;;;1.50;;
18651;SDS011;9455;54.302;10.124;2023-02-19T06:47:23;8.80;;;1.43;;
18651;SDS011;9455;54.302;10.124;2023-02-19T06:49:50;14.30;;;1.70;;
18651;SDS011;9455;54.302;10.124;2023-02-19T06:52:16;4.33;;;1.30;;
18651;SDS011;9455;54.302;10.124;2023-02-19T06:54:44;8.97;;;1.43;;
18651;SDS011;9455;54.302;10.124;2023-02-19T06:57:11;8.90;;;1.50;;
18651;SDS011;9455;54.302;10.124;2023-02-19T06:59:37;9.77;;;1.40;;
18651;SDS011;9455;54.302;10.124;2023-02-19T07:02:04;3.37;;;0.97;;
18651;SDS011;9455;54.302;10.124;2023-02-19T07:04:31;9.10;;;1.43;;
18651;SDS011;9455;54.302;10.124;2023-02-19T07:06:57;5.83;;;1.20;;
18651;SDS011;9455;54.302;10.124;2023-02-19T07:09:24;5.50;;;1.17;;
18651;SDS011;9455;54.302;10.124;2023-02-19T07:11:53;5.37;;;1.50;;
18651;SDS011;9455;54.302;10.124;2023-02-19T07:14:20;3.60;;;1.40;;
18651;SDS011;9455;54.302;10.124;2023-02-19T07:16:47;5.47;;;1.60;;
18651;SDS011;9455;54.302;10.124;2023-02-19T07:19:14;6.37;;;1.37;;
18651;SDS011;9455;54.302;10.124;2023-02-19T07:21:41;6.60;;;1.60;;
18651;SDS011;9455;54.302;10.124;2023-02-19T07:24:08;9.17;;;1.20;;
18651;SDS011;9455;54.302;10.124;2023-02-19T07:26:35;9.43;;;1.87;;
18651;SDS011;9455;54.302;10.124;2023-02-19T07:29:03;12.83;;;1.47;;
18651;SDS011;9455;54.302;10.124;2023-02-19T07:31:29;6.23;;;1.37;;
18651;SDS011;9455;54.302;10.124;2023-02-19T07:33:56;4.50;;;1.40;;
18651;SDS011;9455;54.302;10.124;2023-02-19T07:36:23;4.40;;;1.50;;
18651;SDS011;9455;54.302;10.124;2023-02-19T07:38:53;3.37;;;1.30;;
18651;SDS011;9455;54.302;10.124;2023-02-19T07:41:20;5.60;;;1.97;;
18651;SDS011;9455;54.302;10.124;2023-02-19T07:43:47;5.60;;;1.30;;
18651;SDS011;9455;54.302;10.124;2023-02-19T07:46:15;4.87;;;1.27;;
18651;SDS011;9455;54.302;10.124;2023-02-19T07:48:42;9.67;;;1.90;;
18651;SDS011;9455;54.302;10.124;2023-02-19T07:51:10;2.50;;;1.10;;
18651;SDS011;9455;54.302;10.124;2023-02-19T07:53:38;5.07;;;1.20;;
18651;SDS011;9455;54.302;10.124;2023-02-19T07:56:05;10.00;;;1.80;;
18651;SDS011;9455;54.302;10.124;2023-02-19T07:58:32;10.10;;;1.30;;
18651;SDS011;9455;54.302;10.124;2023-02-19T08:01:05;5.17;;;1.10;;
18651;SDS011;9455;54.302;10.124;2023-02-19T08:03:34;6.30;;;1.27;;
18651;SDS011;9455;54.302;10.124;2023-02-19T08:06:00;11.67;;;2.10;;
18651;SDS011;9455;54.302;10.124;2023-02-19T08:08:27;3.90;;;1.50;;
18651;SDS011;9455;54.302;10.124;2023-02-19T08:10:54;10.83;;;1.27;;
18651;SDS011;9455;54.302;10.124;2023-02-19T08:13:38;5.90;;;1.87;;
18651;SDS011;9455;54.302;10.124;2023-02-19T08:16:08;8.90;;;1.37;;
18651;SDS011;9455;54.302;10.124;2023-02-19T08:18:39;10.97;;;1.60;;
18651;SDS011;9455;54.302;10.124;2023-02-19T08:21:05;8.70;;;1.10;;
18651;SDS011;9455;54.302;10.124;2023-02-19T08:23:32;6.53;;;1.30;;
18651;SDS011;9455;54.302;10.124;2023-02-19T08:25:59;17.43;;;2.50;;
18651;SDS011;9455;54.302;10.124;2023-02-19T08:28:26;1.93;;;1.10;;
18651;SDS011;9455;54.302;10.124;2023-02-19T08:30:56;3.10;;;1.33;;
18651;SDS011;9455;54.302;10.124;2023-02-19T08:33:24;8.23;;;1.50;;
18651;SDS011;9455;54.302;10.124;2023-02-19T08:35:53;2.27;;;1.50;;
18651;SDS011;9455;54.302;10.124;2023-02-19T08:38:20;3.20;;;1.10;;
18651;SDS011;9455;54.302;10.124;2023-02-19T08:40:47;4.97;;;1.20;;
18651;SDS011;9455;54.302;10.124;2023-02-19T08:43:14;2.10;;;1.60;;
18651;SDS011;9455;54.302;10.124;2023-02-19T08:45:43;4.57;;;1.30;;
18651;SDS011;9455;54.302;10.124;2023-02-19T08:48:12;20.80;;;1.70;;
18651;SDS011;9455;54.302;10.124;2023-02-19T08:50:39;5.50;;;1.10;;
18651;SDS011;9455;54.302;10.124;2023-02-19T08:53:07;9.63;;;1.83;;
18651;SDS011;9455;54.302;10.124;2023-02-19T08:55:35;9.87;;;1.33;;
18651;SDS011;9455;54.302;10.124;2023-02-19T08:58:02;6.90;;;1.63;;
18651;SDS011;9455;54.302;10.124;2023-02-19T09:00:29;5.17;;;1.50;;
18651;SDS011;9455;54.302;10.124;2023-02-19T09:02:56;6.37;;;1.30;;
18651;SDS011;9455;54.302;10.124;2023-02-19T09:05:23;9.47;;;0.93;;
18651;SDS011;9455;54.302;10.124;2023-02-19T09:07:49;1.10;;;1.00;;
18651;SDS011;9455;54.302;10.124;2023-02-19T09:10:17;2.27;;;1.10;;
18651;SDS011;9455;54.302;10.124;2023-02-19T09:12:44;7.13;;;1.37;;
18651;SDS011;9455;54.302;10.124;2023-02-19T09:15:10;5.63;;;1.33;;
18651;SDS011;9455;54.302;10.124;2023-02-19T09:17:37;2.67;;;1.03;;
18651;SDS011;9455;54.302;10.124;2023-02-19T09:20:04;4.23;;;1.67;;
18651;SDS011;9455;54.302;10.124;2023-02-19T09:22:31;4.63;;;1.23;;
18651;SDS011;9455;54.302;10.124;2023-02-19T09:24:57;7.13;;;1.27;;
18651;SDS011;9455;54.302;10.124;2023-02-19T09:27:25;9.13;;;0.90;;
18651;SDS011;9455;54.302;10.124;2023-02-19T09:29:52;5.17;;;0.93;;
18651;SDS011;9455;54.302;10.124;2023-02-19T09:32:19;5.93;;;1.10;;
18651;SDS011;9455;54.302;10.124;2023-02-19T09:34:46;6.23;;;1.00;;
18651;SDS011;9455;54.302;10.124;2023-02-19T09:37:12;10.43;;;1.40;;
18651;SDS011;9455;54.302;10.124;2023-02-19T09:39:39;3.70;;;1.03;;
18651;SDS011;9455;54.302;10.124;2023-02-19T09:42:08;6.30;;;1.07;;
18651;SDS011;9455;54.302;10.124;2023-02-19T09:44:41;6.90;;;1.20;;
18651;SDS011;9455;54.302;10.124;2023-02-19T09:47:12;7.63;;;1.13;;
18651;SDS011;9455;54.302;10.124;2023-02-19T09:49:43;16.70;;;1.60;;
18651;SDS011;9455;54.302;10.124;2023-02-19T09:52:17;4.50;;;1.40;;
18651;SDS011;9455;54.302;10.124;2023-02-19T09:54:49;10.33;;;1.10;;
18651;SDS011;9455;54.302;10.124;2023-02-19T09:57:21;5.97;;;1.40;;
18651;SDS011;9455;54.302;10.124;2023-02-19T09:59:52;4.33;;;1.23;;
18651;SDS011;9455;54.302;10.124;2023-02-19T10:02:24;7.23;;;1.60;;
18651;SDS011;9455;54.302;10.124;2023-02-19T10:04:51;7.53;;;1.20;;
18651;SDS011;9455;54.302;10.124;2023-02-19T10:07:19;6.07;;;1.10;;
18651;SDS011;9455;54.302;10.124;2023-02-19T10:09:50;8.23;;;0.77;;
18651;SDS011;9455;54.302;10.124;2023-02-19T10:12:22;2.93;;;0.73;;
18651;SDS011;9455;54.302;10.124;2023-02-19T10:14:53;3.87;;;0.80;;
18651;SDS011;9455;54.302;10.124;2023-02-19T10:17:26;6.33;;;1.23;;
18651;SDS011;9455;54.302;10.124;2023-02-19T10:19:55;14.43;;;1.47;;
18651;SDS011;9455;54.302;10.124;2023-02-19T10:22:23;6.53;;;0.97;;
18651;SDS011;9455;54.302;10.124;2023-02-19T10:24:52;2.90;;;1.00;;
18651;SDS011;9455;54.302;10.124;2023-02-19T10:27:20;7.50;;;0.97;;
18651;SDS011;9455;54.302;10.124;2023-02-19T10:29:48;12.10;;;1.03;;
18651;SDS011;9455;54.302;10.124;2023-02-19T10:32:17;1.43;;;0.93;;
18651;SDS011;9455;54.302;10.124;2023-02-19T10:34:47;3.73;;;0.77;;
18651;SDS011;9455;54.302;10.124;2023-02-19T10:37:33;10.37;;;0.80;;
18651;SDS011;9455;54.302;10.124;2023-02-19T10:40:01;5.90;;;0.90;;
18651;SDS011;9455;54.302;10.124;2023-02-19T10:42:27;4.13;;;0.93;;
18651;SDS011;9455;54.302;10.124;2023-02-19T10:44:55;9.43;;;1.53;;
18651;SDS011;9455;54.302;10.124;2023-02-19T10:47:27;7.30;;;1.30;;
18651;SDS011;9455;54.302;10.124;2023-02-19T10:49:57;4.80;;;1.57;;
18651;SDS011;9455;54.302;10.124;2023-02-19T10:52:26;11.93;;;1.13;;
18651;SDS011;9455;54.302;10.124;2023-02-19T10:54:55;3.00;;;0.70;;
18651;SDS011;9455;54.302;10.124;2023-02-19T10:57:38;4.87;;;1.20;;
18651;SDS011;9455;54.302;10.124;2023-02-19T11:00:19;12.90;;;1.10;;
18651;SDS011;9455;54.302;10.124;2023-02-19T11:02:52;5.23;;;0.90;;
18651;SDS011;9455;54.302;10.124;2023-02-19T11:05:39;4.37;;;0.70;;
18651;SDS011;9455;54.302;10.124;2023-02-19T11:08:20;1.70;;;0.60;;
18651;SDS011;9455;54.302;10.124;2023-02-19T11:10:48;8.27;;;1.00;;
18651;SDS011;9455;54.302;10.124;2023-02-19T11:13:16;6.77;;;1.23;;
18651;SDS011;9455;54.302;10.124;2023-02-19T11:15:50;5.20;;;1.00;;
18651;SDS011;9455;54.302;10.124;2023-02-19T11:18:21;3.50;;;0.80;;
18651;SDS011;9455;54.302;10.124;2023-02-19T11:20:51;2.20;;;1.13;;
18651;SDS011;9455;54.302;10.124;2023-02-19T11:23:21;5.60;;;0.90;;
18651;SDS011;9455;54.302;10.124;2023-02-19T11:25:53;5.93;;;0.80;;
18651;SDS011;9455;54.302;10.124;2023-02-19T11:28:23;9.30;;;1.20;;
18651;SDS011;9455;54.302;10.124;2023-02-19T11:30:55;1.03;;;1.00;;
18651;SDS011;9455;54.302;10.124;2023-02-19T11:33:43;3.73;;;0.83;;
18651;SDS011;9455;54.302;10.124;2023-02-19T11:36:25;0.80;;;0.80;;
18651;SDS011;9455;54.302;10.124;2023-02-19T11:38:53;5.53;;;0.93;;
18651;SDS011;9455;54.302;10.124;2023-02-19T11:41:23;2.10;;;0.80;;
18651;SDS011;9455;54.302;10.124;2023-02-19T11:44:06;1.60;;;0.60;;
18651;SDS011;9455;54.302;10.124;2023-02-19T11:46:45;3.03;;;0.67;;
18651;SDS011;9455;54.302;10.124;2023-02-19T11:49:27;8.10;;;1.03;;
18651;SDS011;9455;54.302;10.124;2023-02-19T11:52:07;1.30;;;0.50;;
18651;SDS011;9455;54.302;10.124;2023-02-19T11:54:48;3.40;;;0.97;;
18651;SDS011;9455;54.302;10.124;2023-02-19T11:57:29;0.83;;;0.60;;
18651;SDS011;9455;54.302;10.124;2023-02-19T12:00:18;0.80;;;0.67;;
18651;SDS011;9455;54.302;10.124;2023-02-19T12:05:46;1.23;;;0.60;;
18651;SDS011;9455;54.302;10.124;2023-02-19T12:11:39;0.50;;;0.50;;
18651;SDS011;9455;54.302;10.124;2023-02-19T12:14:29;4.10;;;1.10;;
18651;SDS011;9455;54.302;10.124;2023-02-19T12:17:15;1.23;;;0.80;;
18651;SDS011;9455;54.302;10.124;2023-02-19T12:19:55;2.63;;;0.50;;
18651;SDS011;9455;54.302;10.124;2023-02-19T12:22:30;2.80;;;0.90;;
18651;SDS011;9455;54.302;10.124;2023-02-19T12:25:08;1.70;;;0.80;;
18651;SDS011;9455;54.302;10.124;2023-02-19T12:27:53;2.47;;;0.67;;
18651;SDS011;9455;54.302;10.124;2023-02-19T12:30:36;6.20;;;1.00;;
18651;SDS011;9455;54.302;10.124;2023-02-19T12:33:38;6.33;;;0.80;;
18651;SDS011;9455;54.302;10.124;2023-02-19T12:36:19;0.43;;;0.43;;
18651;SDS011;9455;54.302;10.124;2023-02-19T12:38:56;5.77;;;1.03;;
18651;SDS011;9455;54.302;10.124;2023-02-19T12:41:30;2.53;;;1.33;;
18651;SDS011;9455;54.302;10.124;2023-02-19T12:44:07;1.53;;;0.67;;
18651;SDS011;9455;54.302;10.124;2023-02-19T12:46:40;1.57;;;0.50;;
18651;SDS011;9455;54.302;10.124;2023-02-19T12:49:11;6.00;;;0.93;;
18651;SDS011;9455;54.302;10.124;2023-02-19T12:51:44;1.97;;;0.77;;
18651;SDS011;9455;54.302;10.124;2023-02-19T12:54:16;17.10;;;0.97;;
18651;SDS011;9455;54.302;10.124;2023-02-19T12:56:49;3.47;;;0.67;;
18651;SDS011;9455;54.302;10.124;2023-02-19T12:59:21;0.57;;;0.50;;
18651;SDS011;9455;54.302;10.124;2023-02-19T13:01:53;3.47;;;1.03;;
18651;SDS011;9455;54.302;10.124;2023-02-19T13:04:25;6.90;;;1.17;;
18651;SDS011;9455;54.302;10.124;2023-02-19T13:07:01;4.63;;;0.67;;
18651;SDS011;9455;54.302;10.124;2023-02-19T13:09:34;5.50;;;0.70;;
18651;SDS011;9455;54.302;10.124;2023-02-19T13:12:06;3.33;;;0.90;;
18651;SDS011;9455;54.302;10.124;2023-02-19T13:14:38;5.90;;;0.93;;
18651;SDS011;9455;54.302;10.124;2023-02-19T13:17:14;6.13;;;1.00;;
18651;SDS011;9455;54.302;10.124;2023-02-19T13:19:47;2.60;;;0.83;;
18651;SDS011;9455;54.302;10.124;2023-02-19T13:22:19;0.70;;;0.70;;
18651;SDS011;9455;54.302;10.124;2023-02-19T13:25:10;0.97;;;0.70;;
18651;SDS011;9455;54.302;10.124;2023-02-19T13:27:47;6.33;;;0.73;;
18651;SDS011;9455;54.302;10.124;2023-02-19T13:30:29;2.97;;;0.73;;
18651;SDS011;9455;54.302;10.124;2023-02-19T13:33:04;1.73;;;0.60;;
18651;SDS011;9455;54.302;10.124;2023-02-19T13:35:57;0.53;;;0.53;;
18651;SDS011;9455;54.302;10.124;2023-02-19T13:38:30;0.73;;;0.50;;
18651;SDS011;9455;54.302;10.124;2023-02-19T13:40:59;1.23;;;0.50;;
18651;SDS011;9455;54.302;10.124;2023-02-19T13:43:27;3.63;;;0.60;;
18651;SDS011;9455;54.302;10.124;2023-02-19T13:45:59;1.50;;;0.80;;
18651;SDS011;9455;54.302;10.124;2023-02-19T13:48:29;0.87;;;0.73;;
18651;SDS011;9455;54.302;10.124;2023-02-19T13:54:00;3.70;;;1.33;;
18651;SDS011;9455;54.302;10.124;2023-02-19T13:56:40;3.50;;;0.80;;
18651;SDS011;9455;54.302;10.124;2023-02-19T14:04:56;4.43;;;0.60;;
18651;SDS011;9455;54.302;10.124;2023-02-19T14:19:43;1.47;;;0.80;;
18651;SDS011;9455;54.302;10.124;2023-02-19T14:25:27;4.33;;;1.30;;
18651;SDS011;9455;54.302;10.124;2023-02-19T14:28:12;1.47;;;0.80;;
18651;SDS011;9455;54.302;10.124;2023-02-19T14:30:46;2.87;;;0.80;;
18651;SDS011;9455;54.302;10.124;2023-02-19T14:33:16;1.73;;;0.40;;
18651;SDS011;9455;54.302;10.124;2023-02-19T14:35:45;3.07;;;1.03;;
18651;SDS011;9455;54.302;10.124;2023-02-19T14:38:17;0.50;;;0.50;;
18651;SDS011;9455;54.302;10.124;2023-02-19T14:40:47;2.93;;;1.00;;
18651;SDS011;9455;54.302;10.124;2023-02-19T14:43:15;5.47;;;0.70;;
18651;SDS011;9455;54.302;10.124;2023-02-19T14:45:46;3.10;;;0.50;;
18651;SDS011;9455;54.302;10.124;2023-02-19T14:48:16;2.93;;;1.10;;
18651;SDS011;9455;54.302;10.124;2023-02-19T14:50:45;2.83;;;1.60;;
18651;SDS011;9455;54.302;10.124;2023-02-19T14:53:15;0.77;;;0.50;;
18651;SDS011;9455;54.302;10.124;2023-02-19T14:55:44;3.93;;;0.70;;
18651;SDS011;9455;54.302;10.124;2023-02-19T14:58:12;8.87;;;1.20;;
18651;SDS011;9455;54.302;10.124;2023-02-19T15:00:42;1.53;;;0.77;;
18651;SDS011;9455;54.302;10.124;2023-02-19T15:03:23;2.27;;;1.20;;
18651;SDS011;9455;54.302;10.124;2023-02-19T15:05:55;4.37;;;1.00;;
18651;SDS011;9455;54.302;10.124;2023-02-19T15:08:26;2.57;;;0.83;;
18651;SDS011;9455;54.302;10.124;2023-02-19T15:10:57;7.60;;;1.37;;
18651;SDS011;9455;54.302;10.124;2023-02-19T15:13:25;10.03;;;0.83;;
18651;SDS011;9455;54.302;10.124;2023-02-19T15:15:53;3.83;;;0.80;;
18651;SDS011;9455;54.302;10.124;2023-02-19T15:18:22;2.97;;;1.07;;
18651;SDS011;9455;54.302;10.124;2023-02-19T15:20:50;2.97;;;0.93;;
18651;SDS011;9455;54.302;10.124;2023-02-19T15:23:24;2.40;;;0.40;;
18651;SDS011;9455;54.302;10.124;2023-02-19T15:25:51;6.77;;;0.70;;
18651;SDS011;9455;54.302;10.124;2023-02-19T15:28:19;3.87;;;0.70;;
18651;SDS011;9455;54.302;10.124;2023-02-19T15:31:02;5.60;;;0.63;;
18651;SDS011;9455;54.302;10.124;2023-02-19T15:33:44;1.13;;;0.60;;
18651;SDS011;9455;54.302;10.124;2023-02-19T15:36:14;1.43;;;1.33;;
18651;SDS011;9455;54.302;10.124;2023-02-19T15:38:50;2.77;;;0.90;;
18651;SDS011;9455;54.302;10.124;2023-02-19T15:41:20;4.17;;;1.33;;
18651;SDS011;9455;54.302;10.124;2023-02-19T15:43:48;8.47;;;2.87;;